sensor_id;sensor_type;location;lat;lon;timestamp;pressure;altitude;pressure_sealevel;temperature;humidity
78317;BME280;67572;50.930;18.276;2023-07-13T00:00:39;98656.81;;;20.55;76.81
78317;BME280;67572;50.930;18.276;2023-07-13T00:03:43;98653.06;;;20.33;77.78
78317;BME280;67572;50.930;18.276;2023-07-13T00:06:47;98663.09;;;20.16;79.04
78317;BME280;67572;50.930;18.276;2023-07-13T00:09:50;98673.38;;;20.21;79.47
78317;BME280;67572;50.930;18.276;2023-07-13T00:12:54;98681.84;;;20.18;79.71
78317;BME280;67572;50.930;18.276;2023-07-13T00:15:59;98682.94;;;20.01;80.56
78317;BME280;67572;50.930;18.276;2023-07-13T00:19:04;98687.41;;;20.16;80.36
78317;BME280;67572;50.930;18.276;2023-07-13T00:22:08;98692.16;;;20.14;80.39
78317;BME280;67572;50.930;18.276;2023-07-13T00:25:11;98677.44;;;20.17;80.29
78317;BME280;67572;50.930;18.276;2023-07-13T00:28:19;98674.00;;;20.31;79.84
78317;BME280;67572;50.930;18.276;2023-07-13T00:31:24;98669.03;;;20.43;79.12
78317;BME280;67572;50.930;18.276;2023-07-13T00:34:27;98653.72;;;20.35;79.19
78317;BME280;67572;50.930;18.276;2023-07-13T00:37:31;98646.66;;;20.34;79.29
78317;BME280;67572;50.930;18.276;2023-07-13T00:40:35;98658.19;;;20.51;79.27
78317;BME280;67572;50.930;18.276;2023-07-13T00:43:40;98661.78;;;20.66;78.55
78317;BME280;67572;50.930;18.276;2023-07-13T00:46:45;98667.56;;;20.86;77.76
78317;BME280;67572;50.930;18.276;2023-07-13T00:49:49;98657.69;;;20.70;78.37
78317;BME280;67572;50.930;18.276;2023-07-13T00:52:55;98657.41;;;20.65;78.61
78317;BME280;67572;50.930;18.276;2023-07-13T00:56:00;98660.25;;;20.72;78.14
78317;BME280;67572;50.930;18.276;2023-07-13T00:59:07;98658.25;;;21.03;77.10
78317;BME280;67572;50.930;18.276;2023-07-13T01:02:13;98663.56;;;20.97;76.70
78317;BME280;67572;50.930;18.276;2023-07-13T01:05:20;98671.66;;;20.97;77.30
78317;BME280;67572;50.930;18.276;2023-07-13T01:08:24;98676.19;;;20.82;77.63
78317;BME280;67572;50.930;18.276;2023-07-13T01:11:28;98682.81;;;20.79;77.98
78317;BME280;67572;50.930;18.276;2023-07-13T01:14:32;98678.34;;;20.86;77.58
78317;BME280;67572;50.930;18.276;2023-07-13T01:17:37;98680.19;;;20.71;79.02
78317;BME280;67572;50.930;18.276;2023-07-13T01:20:41;98685.72;;;20.69;79.00
78317;BME280;67572;50.930;18.276;2023-07-13T01:23:46;98704.38;;;20.64;79.41
78317;BME280;67572;50.930;18.276;2023-07-13T01:26:50;98710.47;;;20.27;81.09
78317;BME280;67572;50.930;18.276;2023-07-13T01:29:53;98714.94;;;20.12;82.66
78317;BME280;67572;50.930;18.276;2023-07-13T01:33:05;98702.63;;;20.09;82.93
78317;BME280;67572;50.930;18.276;2023-07-13T01:36:11;98691.63;;;20.19;82.61
78317;BME280;67572;50.930;18.276;2023-07-13T01:39:17;98696.22;;;20.41;81.09
78317;BME280;67572;50.930;18.276;2023-07-13T01:42:21;98689.34;;;20.31;81.33
78317;BME280;67572;50.930;18.276;2023-07-13T01:45:24;98677.13;;;20.43;81.52
78317;BME280;67572;50.930;18.276;2023-07-13T01:48:28;98670.75;;;20.67;80.15
78317;BME280;67572;50.930;18.276;2023-07-13T01:51:31;98661.50;;;20.61;79.91
78317;BME280;67572;50.930;18.276;2023-07-13T01:54:36;98670.56;;;20.37;81.39
78317;BME280;67572;50.930;18.276;2023-07-13T01:57:40;98660.97;;;20.35;81.85
78317;BME280;67572;50.930;18.276;2023-07-13T02:00:43;98642.19;;;20.18;82.63
78317;BME280;67572;50.930;18.276;2023-07-13T02:03:47;98639.56;;;20.10;82.92
78317;BME280;67572;50.930;18.276;2023-07-13T02:06:50;98612.44;;;20.04;83.30
78317;BME280;67572;50.930;18.276;2023-07-13T02:09:55;98613.13;;;19.98;83.23
78317;BME280;67572;50.930;18.276;2023-07-13T02:12:59;98624.50;;;19.85;83.91
78317;BME280;67572;50.930;18.276;2023-07-13T02:16:03;98630.03;;;19.91;83.51
78317;BME280;67572;50.930;18.276;2023-07-13T02:19:06;98641.53;;;19.85;83.74
78317;BME280;67572;50.930;18.276;2023-07-13T02:22:10;98644.09;;;19.79;84.31
78317;BME280;67572;50.930;18.276;2023-07-13T02:25:15;98655.56;;;19.81;84.61
78317;BME280;67572;50.930;18.276;2023-07-13T02:28:19;98645.28;;;19.76;83.98
78317;BME280;67572;50.930;18.276;2023-07-13T02:31:24;98651.16;;;19.80;84.10
78317;BME280;67572;50.930;18.276;2023-07-13T02:34:28;98639.38;;;19.81;83.81
78317;BME280;67572;50.930;18.276;2023-07-13T02:37:34;98633.31;;;19.71;84.39
78317;BME280;67572;50.930;18.276;2023-07-13T02:40:39;98625.38;;;19.77;83.95
78317;BME280;67572;50.930;18.276;2023-07-13T02:43:43;98617.78;;;19.81;82.54
78317;BME280;67572;50.930;18.276;2023-07-13T02:46:46;98626.34;;;19.84;82.57
78317;BME280;67572;50.930;18.276;2023-07-13T02:49:50;98623.88;;;20.06;81.36
78317;BME280;67572;50.930;18.276;2023-07-13T02:52:54;98615.75;;;19.83;82.06
78317;BME280;67572;50.930;18.276;2023-07-13T02:56:00;98615.28;;;20.02;81.42
78317;BME280;67572;50.930;18.276;2023-07-13T02:59:03;98605.13;;;20.12;80.02
78317;BME280;67572;50.930;18.276;2023-07-13T03:02:07;98607.50;;;20.30;78.31
78317;BME280;67572;50.930;18.276;2023-07-13T03:05:12;98606.56;;;20.23;78.53
78317;BME280;67572;50.930;18.276;2023-07-13T03:08:17;98624.75;;;20.29;78.65
78317;BME280;67572;50.930;18.276;2023-07-13T03:11:24;98642.34;;;20.17;78.96
78317;BME280;67572;50.930;18.276;2023-07-13T03:14:36;98638.16;;;19.83;80.69
78317;BME280;67572;50.930;18.276;2023-07-13T03:17:41;98631.09;;;19.82;81.01
78317;BME280;67572;50.930;18.276;2023-07-13T03:20:45;98634.91;;;19.96;80.50
78317;BME280;67572;50.930;18.276;2023-07-13T03:23:48;98630.78;;;20.08;80.24
78317;BME280;67572;50.930;18.276;2023-07-13T03:26:53;98628.53;;;19.89;80.11
78317;BME280;67572;50.930;18.276;2023-07-13T03:29:58;98623.19;;;19.81;80.25
78317;BME280;67572;50.930;18.276;2023-07-13T03:33:01;98617.84;;;19.64;81.48
78317;BME280;67572;50.930;18.276;2023-07-13T03:36:16;98609.75;;;19.56;81.26
78317;BME280;67572;50.930;18.276;2023-07-13T03:39:21;98603.13;;;19.36;80.45
78317;BME280;67572;50.930;18.276;2023-07-13T03:42:30;98608.06;;;19.16;81.02
78317;BME280;67572;50.930;18.276;2023-07-13T03:45:33;98597.63;;;19.13;81.67
78317;BME280;67572;50.930;18.276;2023-07-13T03:48:37;98601.59;;;19.33;81.28
78317;BME280;67572;50.930;18.276;2023-07-13T03:51:43;98610.16;;;19.45;80.63
78317;BME280;67572;50.930;18.276;2023-07-13T03:54:46;98609.38;;;19.28;81.16
78317;BME280;67572;50.930;18.276;2023-07-13T03:57:58;98613.19;;;19.50;81.08
78317;BME280;67572;50.930;18.276;2023-07-13T04:01:04;98611.53;;;19.33;83.08
78317;BME280;67572;50.930;18.276;2023-07-13T04:04:08;98614.72;;;19.45;82.10
78317;BME280;67572;50.930;18.276;2023-07-13T04:07:12;98599.59;;;19.35;81.97
78317;BME280;67572;50.930;18.276;2023-07-13T04:10:15;98619.19;;;19.68;81.74
78317;BME280;67572;50.930;18.276;2023-07-13T04:13:22;98628.94;;;19.70;81.57
78317;BME280;67572;50.930;18.276;2023-07-13T04:16:25;98639.16;;;19.90;80.55
78317;BME280;67572;50.930;18.276;2023-07-13T04:19:29;98657.50;;;19.95;81.01
78317;BME280;67572;50.930;18.276;2023-07-13T04:22:33;98665.63;;;19.95;82.07
78317;BME280;67572;50.930;18.276;2023-07-13T04:25:36;98667.00;;;20.14;82.29
78317;BME280;67572;50.930;18.276;2023-07-13T04:28:41;98677.44;;;20.17;82.39
78317;BME280;67572;50.930;18.276;2023-07-13T04:31:45;98663.25;;;20.23;82.39
78317;BME280;67572;50.930;18.276;2023-07-13T04:34:49;98669.53;;;20.15;82.52
78317;BME280;67572;50.930;18.276;2023-07-13T04:37:55;98662.31;;;20.62;81.09
78317;BME280;67572;50.930;18.276;2023-07-13T04:41:00;98666.19;;;20.44;81.26
78317;BME280;67572;50.930;18.276;2023-07-13T04:44:05;98674.13;;;20.38;82.45
78317;BME280;67572;50.930;18.276;2023-07-13T04:47:09;98680.50;;;20.45;82.09
78317;BME280;67572;50.930;18.276;2023-07-13T04:50:13;98679.88;;;20.35;81.91
78317;BME280;67572;50.930;18.276;2023-07-13T04:53:21;98683.44;;;20.35;82.43
78317;BME280;67572;50.930;18.276;2023-07-13T04:56:25;98682.19;;;20.15;82.54
78317;BME280;67572;50.930;18.276;2023-07-13T04:59:30;98682.94;;;20.32;82.79
78317;BME280;67572;50.930;18.276;2023-07-13T05:02:34;98683.78;;;20.01;83.59
78317;BME280;67572;50.930;18.276;2023-07-13T05:05:37;98689.97;;;20.10;83.43
78317;BME280;67572;50.930;18.276;2023-07-13T05:08:41;98686.13;;;20.35;82.68
78317;BME280;67572;50.930;18.276;2023-07-13T05:11:45;98678.97;;;20.50;81.88
78317;BME280;67572;50.930;18.276;2023-07-13T05:14:50;98670.44;;;20.62;80.71
78317;BME280;67572;50.930;18.276;2023-07-13T05:17:53;98667.97;;;20.52;80.40
78317;BME280;67572;50.930;18.276;2023-07-13T05:20:58;98680.69;;;20.66;80.55
78317;BME280;67572;50.930;18.276;2023-07-13T05:24:03;98684.63;;;20.64;80.79
78317;BME280;67572;50.930;18.276;2023-07-13T05:27:25;98686.94;;;20.67;81.11
78317;BME280;67572;50.930;18.276;2023-07-13T05:30:30;98693.13;;;20.75;80.48
78317;BME280;67572;50.930;18.276;2023-07-13T05:33:35;98686.63;;;20.62;80.98
78317;BME280;67572;50.930;18.276;2023-07-13T05:36:39;98687.72;;;20.75;80.89
78317;BME280;67572;50.930;18.276;2023-07-13T05:39:43;98698.22;;;20.70;80.40
78317;BME280;67572;50.930;18.276;2023-07-13T05:42:46;98703.53;;;20.64;81.57
78317;BME280;67572;50.930;18.276;2023-07-13T05:45:53;98697.03;;;20.73;80.52
78317;BME280;67572;50.930;18.276;2023-07-13T05:48:57;98712.53;;;20.79;81.03
78317;BME280;67572;50.930;18.276;2023-07-13T05:52:00;98727.22;;;20.76;81.82
78317;BME280;67572;50.930;18.276;2023-07-13T05:55:04;98730.69;;;20.85;81.65
78317;BME280;67572;50.930;18.276;2023-07-13T05:58:08;98735.31;;;20.54;82.11
78317;BME280;67572;50.930;18.276;2023-07-13T06:01:13;98744.81;;;20.41;83.82
78317;BME280;67572;50.930;18.276;2023-07-13T06:04:18;98743.66;;;20.36;83.96
78317;BME280;67572;50.930;18.276;2023-07-13T06:07:21;98757.63;;;20.47;83.76
78317;BME280;67572;50.930;18.276;2023-07-13T06:10:25;98776.41;;;20.33;84.36
78317;BME280;67572;50.930;18.276;2023-07-13T06:13:29;98782.47;;;19.95;86.41
78317;BME280;67572;50.930;18.276;2023-07-13T06:16:33;98791.72;;;20.01;86.61
78317;BME280;67572;50.930;18.276;2023-07-13T06:19:40;98794.50;;;19.52;85.18
78317;BME280;67572;50.930;18.276;2023-07-13T06:22:43;98795.13;;;18.81;82.50
78317;BME280;67572;50.930;18.276;2023-07-13T06:25:47;98802.19;;;18.66;82.66
78317;BME280;67572;50.930;18.276;2023-07-13T06:28:50;98799.50;;;18.74;81.61
78317;BME280;67572;50.930;18.276;2023-07-13T06:31:55;98806.03;;;18.63;80.86
78317;BME280;67572;50.930;18.276;2023-07-13T06:34:59;98811.22;;;18.56;80.27
78317;BME280;67572;50.930;18.276;2023-07-13T06:38:03;98810.97;;;18.34;80.61
78317;BME280;67572;50.930;18.276;2023-07-13T06:41:07;98825.69;;;18.13;79.90
78317;BME280;67572;50.930;18.276;2023-07-13T06:44:12;98820.88;;;18.25;80.25
78317;BME280;67572;50.930;18.276;2023-07-13T06:47:47;98810.50;;;18.38;79.37
78317;BME280;67572;50.930;18.276;2023-07-13T06:50:51;98809.28;;;18.33;78.14
78317;BME280;67572;50.930;18.276;2023-07-13T06:53:55;98806.09;;;18.29;78.29
78317;BME280;67572;50.930;18.276;2023-07-13T06:56:59;98812.94;;;18.15;78.10
78317;BME280;67572;50.930;18.276;2023-07-13T07:00:03;98820.19;;;18.23;77.92
78317;BME280;67572;50.930;18.276;2023-07-13T07:03:10;98827.91;;;18.18;78.31
78317;BME280;67572;50.930;18.276;2023-07-13T07:06:43;98833.63;;;18.15;78.24
78317;BME280;67572;50.930;18.276;2023-07-13T07:09:46;98818.31;;;18.15;78.10
78317;BME280;67572;50.930;18.276;2023-07-13T07:12:50;98818.78;;;18.11;78.35
78317;BME280;67572;50.930;18.276;2023-07-13T07:15:54;98823.41;;;17.92;78.67
78317;BME280;67572;50.930;18.276;2023-07-13T07:18:57;98837.16;;;17.89;78.51
78317;BME280;67572;50.930;18.276;2023-07-13T07:22:02;98834.28;;;17.91;78.45
78317;BME280;67572;50.930;18.276;2023-07-13T07:25:05;98822.31;;;18.11;77.72
78317;BME280;67572;50.930;18.276;2023-07-13T07:28:09;98826.69;;;18.12;77.34
78317;BME280;67572;50.930;18.276;2023-07-13T07:31:15;98841.38;;;17.92;77.80
78317;BME280;67572;50.930;18.276;2023-07-13T07:34:22;98835.94;;;18.10;77.71
78317;BME280;67572;50.930;18.276;2023-07-13T07:37:27;98835.47;;;18.14;77.33
78317;BME280;67572;50.930;18.276;2023-07-13T07:40:36;98827.47;;;18.05;77.69
78317;BME280;67572;50.930;18.276;2023-07-13T07:43:42;98823.91;;;18.22;76.65
78317;BME280;67572;50.930;18.276;2023-07-13T07:46:46;98819.63;;;18.45;76.66
78317;BME280;67572;50.930;18.276;2023-07-13T07:49:50;98820.19;;;18.23;76.41
78317;BME280;67572;50.930;18.276;2023-07-13T07:52:55;98828.97;;;18.33;75.75
78317;BME280;67572;50.930;18.276;2023-07-13T07:55:59;98838.75;;;18.42;74.69
78317;BME280;67572;50.930;18.276;2023-07-13T07:59:22;98837.31;;;18.56;74.26
78317;BME280;67572;50.930;18.276;2023-07-13T08:02:29;98823.81;;;18.48;73.69
78317;BME280;67572;50.930;18.276;2023-07-13T08:05:35;98828.63;;;18.70;74.92
78317;BME280;67572;50.930;18.276;2023-07-13T08:08:58;98856.72;;;18.34;74.69
78317;BME280;67572;50.930;18.276;2023-07-13T08:12:02;98845.13;;;18.33;75.29
78317;BME280;67572;50.930;18.276;2023-07-13T08:15:13;98862.63;;;18.29;75.93
78317;BME280;67572;50.930;18.276;2023-07-13T08:20:49;98902.13;;;17.77;79.49
78317;BME280;67572;50.930;18.276;2023-07-13T08:23:53;98928.19;;;17.76;80.56
78317;BME280;67572;50.930;18.276;2023-07-13T08:26:56;98948.59;;;17.51;81.65
78317;BME280;67572;50.930;18.276;2023-07-13T08:29:59;98964.09;;;17.39;82.01
78317;BME280;67572;50.930;18.276;2023-07-13T08:33:04;98961.13;;;17.15;84.54
78317;BME280;67572;50.930;18.276;2023-07-13T08:36:09;98944.81;;;17.26;85.32
78317;BME280;67572;50.930;18.276;2023-07-13T08:39:12;98943.66;;;17.29;85.30
78317;BME280;67572;50.930;18.276;2023-07-13T08:42:30;98938.06;;;17.40;84.68
78317;BME280;67572;50.930;18.276;2023-07-13T08:45:41;98930.69;;;17.24;85.45
78317;BME280;67572;50.930;18.276;2023-07-13T08:48:49;98920.03;;;17.50;84.82
78317;BME280;67572;50.930;18.276;2023-07-13T08:52:00;98918.41;;;17.75;84.49
78317;BME280;67572;50.930;18.276;2023-07-13T08:55:12;98927.00;;;17.61;84.12
78317;BME280;67572;50.930;18.276;2023-07-13T08:58:17;98929.47;;;17.54;84.62
78317;BME280;67572;50.930;18.276;2023-07-13T09:01:27;98934.41;;;17.77;84.46
78317;BME280;67572;50.930;18.276;2023-07-13T09:04:35;98934.25;;;17.78;84.88
78317;BME280;67572;50.930;18.276;2023-07-13T09:07:54;98940.06;;;18.17;84.82
78317;BME280;67572;50.930;18.276;2023-07-13T09:11:08;98945.56;;;18.08;83.85
78317;BME280;67572;50.930;18.276;2023-07-13T09:14:37;98938.00;;;18.11;83.20
78317;BME280;67572;50.930;18.276;2023-07-13T09:17:49;98927.91;;;18.13;82.38
78317;BME280;67572;50.930;18.276;2023-07-13T09:20:56;98923.31;;;18.23;82.30
78317;BME280;67572;50.930;18.276;2023-07-13T09:24:26;98906.22;;;18.07;83.22
78317;BME280;67572;50.930;18.276;2023-07-13T09:27:35;98912.94;;;18.37;82.52
78317;BME280;67572;50.930;18.276;2023-07-13T09:30:51;98887.22;;;18.08;82.88
78317;BME280;67572;50.930;18.276;2023-07-13T09:33:59;98879.31;;;18.07;84.12
78317;BME280;67572;50.930;18.276;2023-07-13T09:37:02;98880.03;;;17.91;83.59
78317;BME280;67572;50.930;18.276;2023-07-13T09:40:13;98871.31;;;17.97;84.09
78317;BME280;67572;50.930;18.276;2023-07-13T09:43:20;98862.97;;;18.00;84.05
78317;BME280;67572;50.930;18.276;2023-07-13T09:46:24;98854.81;;;18.18;84.33
78317;BME280;67572;50.930;18.276;2023-07-13T09:49:32;98874.59;;;18.09;84.27
78317;BME280;67572;50.930;18.276;2023-07-13T09:52:42;98862.75;;;18.27;83.42
78317;BME280;67572;50.930;18.276;2023-07-13T09:55:48;98857.91;;;18.31;83.57
78317;BME280;67572;50.930;18.276;2023-07-13T09:58:55;98860.06;;;18.27;83.86
78317;BME280;67572;50.930;18.276;2023-07-13T10:02:00;98866.63;;;18.25;83.40
78317;BME280;67572;50.930;18.276;2023-07-13T10:05:06;98878.63;;;18.73;82.49
78317;BME280;67572;50.930;18.276;2023-07-13T10:08:31;98880.31;;;18.74;81.03
78317;BME280;67572;50.930;18.276;2023-07-13T10:11:40;98875.31;;;18.87;81.94
78317;BME280;67572;50.930;18.276;2023-07-13T10:14:44;98874.97;;;18.82;81.33
78317;BME280;67572;50.930;18.276;2023-07-13T10:17:50;98881.72;;;19.02;81.41
78317;BME280;67572;50.930;18.276;2023-07-13T10:20:58;98883.41;;;18.95;79.51
78317;BME280;67572;50.930;18.276;2023-07-13T10:24:30;98891.56;;;19.20;78.72
78317;BME280;67572;50.930;18.276;2023-07-13T10:27:39;98892.22;;;19.22;79.01
78317;BME280;67572;50.930;18.276;2023-07-13T10:30:46;98906.75;;;19.37;76.23
78317;BME280;67572;50.930;18.276;2023-07-13T10:33:50;98919.03;;;19.31;76.01
78317;BME280;67572;50.930;18.276;2023-07-13T10:36:54;98924.97;;;19.51;75.39
78317;BME280;67572;50.930;18.276;2023-07-13T10:39:59;98930.38;;;19.84;76.12
78317;BME280;67572;50.930;18.276;2023-07-13T10:43:13;98931.41;;;19.75;76.16
78317;BME280;67572;50.930;18.276;2023-07-13T10:46:26;98946.91;;;19.97;76.57
78317;BME280;67572;50.930;18.276;2023-07-13T10:49:33;98936.28;;;19.87;74.77
78317;BME280;67572;50.930;18.276;2023-07-13T10:52:44;98938.47;;;20.00;72.84
78317;BME280;67572;50.930;18.276;2023-07-13T10:55:58;98941.69;;;19.95;73.11
78317;BME280;67572;50.930;18.276;2023-07-13T10:59:11;98933.34;;;20.38;72.07
78317;BME280;67572;50.930;18.276;2023-07-13T11:02:26;98941.44;;;20.46;72.59
78317;BME280;67572;50.930;18.276;2023-07-13T11:05:32;98935.00;;;20.55;73.76
78317;BME280;67572;50.930;18.276;2023-07-13T11:08:38;98923.78;;;20.19;73.91
78317;BME280;67572;50.930;18.276;2023-07-13T11:11:59;98936.06;;;20.30;74.13
78317;BME280;67572;50.930;18.276;2023-07-13T11:15:11;98934.84;;;20.57;73.79
78317;BME280;67572;50.930;18.276;2023-07-13T11:18:21;98942.97;;;20.57;72.80
78317;BME280;67572;50.930;18.276;2023-07-13T11:21:26;98939.59;;;20.30;71.57
78317;BME280;67572;50.930;18.276;2023-07-13T11:24:52;98937.13;;;20.76;72.40
78317;BME280;67572;50.930;18.276;2023-07-13T11:28:13;98950.22;;;20.95;72.61
78317;BME280;67572;50.930;18.276;2023-07-13T11:31:20;98948.69;;;21.01;70.34
78317;BME280;67572;50.930;18.276;2023-07-13T11:34:29;98949.53;;;21.01;70.55
78317;BME280;67572;50.930;18.276;2023-07-13T11:37:34;98955.06;;;20.69;71.03
78317;BME280;67572;50.930;18.276;2023-07-13T11:40:38;98959.03;;;20.89;69.87
78317;BME280;67572;50.930;18.276;2023-07-13T11:43:48;98964.88;;;20.62;71.70
78317;BME280;67572;50.930;18.276;2023-07-13T11:46:55;98961.34;;;21.00;70.20
78317;BME280;67572;50.930;18.276;2023-07-13T11:50:04;98955.22;;;21.69;68.27
78317;BME280;67572;50.930;18.276;2023-07-13T11:53:09;98942.97;;;21.58;69.95
78317;BME280;67572;50.930;18.276;2023-07-13T11:56:14;98947.50;;;20.64;70.29
78317;BME280;67572;50.930;18.276;2023-07-13T11:59:18;98948.72;;;20.93;69.65
78317;BME280;67572;50.930;18.276;2023-07-13T12:02:29;98956.97;;;21.39;69.11
78317;BME280;67572;50.930;18.276;2023-07-13T12:05:34;98950.53;;;21.00;68.84
78317;BME280;67572;50.930;18.276;2023-07-13T12:08:39;98952.28;;;21.55;69.18
78317;BME280;67572;50.930;18.276;2023-07-13T12:12:46;98956.50;;;21.27;69.58
78317;BME280;67572;50.930;18.276;2023-07-13T12:15:50;98953.78;;;20.96;70.10
78317;BME280;67572;50.930;18.276;2023-07-13T12:18:55;98969.59;;;21.07;70.01
78317;BME280;67572;50.930;18.276;2023-07-13T12:21:59;98960.84;;;21.36;70.05
78317;BME280;67572;50.930;18.276;2023-07-13T12:25:04;98965.63;;;21.80;67.43
78317;BME280;67572;50.930;18.276;2023-07-13T12:28:21;98961.66;;;21.68;65.98
78317;BME280;67572;50.930;18.276;2023-07-13T12:31:31;98965.81;;;21.78;67.22
78317;BME280;67572;50.930;18.276;2023-07-13T12:34:51;98970.00;;;22.27;64.93
78317;BME280;67572;50.930;18.276;2023-07-13T12:37:57;98970.84;;;21.81;65.88
78317;BME280;67572;50.930;18.276;2023-07-13T12:41:03;98975.47;;;21.50;67.20
78317;BME280;67572;50.930;18.276;2023-07-13T12:44:12;98968.88;;;21.75;67.00
78317;BME280;67572;50.930;18.276;2023-07-13T12:47:16;98971.22;;;21.78;65.29
78317;BME280;67572;50.930;18.276;2023-07-13T12:50:29;98966.28;;;21.82;64.66
78317;BME280;67572;50.930;18.276;2023-07-13T12:53:39;98959.84;;;21.60;66.45
78317;BME280;67572;50.930;18.276;2023-07-13T12:56:43;98958.03;;;21.75;64.78
78317;BME280;67572;50.930;18.276;2023-07-13T12:59:51;98949.81;;;21.69;63.98
78317;BME280;67572;50.930;18.276;2023-07-13T13:02:57;98954.50;;;21.75;63.38
78317;BME280;67572;50.930;18.276;2023-07-13T13:06:24;98956.84;;;22.38;62.84
78317;BME280;67572;50.930;18.276;2023-07-13T13:09:28;98962.56;;;22.73;62.53
78317;BME280;67572;50.930;18.276;2023-07-13T13:12:32;98960.44;;;22.98;62.00
78317;BME280;67572;50.930;18.276;2023-07-13T13:15:37;98959.50;;;22.91;61.72
78317;BME280;67572;50.930;18.276;2023-07-13T13:18:40;98972.59;;;22.87;59.93
78317;BME280;67572;50.930;18.276;2023-07-13T13:21:45;98973.13;;;22.83;60.96
78317;BME280;67572;50.930;18.276;2023-07-13T13:24:49;98971.06;;;22.55;63.91
78317;BME280;67572;50.930;18.276;2023-07-13T13:27:53;98970.59;;;22.66;62.32
78317;BME280;67572;50.930;18.276;2023-07-13T13:30:58;98981.09;;;22.99;59.73
78317;BME280;67572;50.930;18.276;2023-07-13T13:34:08;98983.59;;;23.66;59.39
78317;BME280;67572;50.930;18.276;2023-07-13T13:37:17;98980.88;;;24.58;59.61
78317;BME280;67572;50.930;18.276;2023-07-13T13:40:22;98978.94;;;23.60;61.61
78317;BME280;67572;50.930;18.276;2023-07-13T13:43:26;98976.09;;;24.11;57.79
78317;BME280;67572;50.930;18.276;2023-07-13T13:46:32;98973.94;;;23.64;58.88
78317;BME280;67572;50.930;18.276;2023-07-13T13:49:35;98983.19;;;23.33;59.39
78317;BME280;67572;50.930;18.276;2023-07-13T13:52:39;98971.44;;;23.47;59.67
78317;BME280;67572;50.930;18.276;2023-07-13T13:55:43;98976.16;;;23.39;59.06
78317;BME280;67572;50.930;18.276;2023-07-13T13:58:46;98969.16;;;24.58;55.99
78317;BME280;67572;50.930;18.276;2023-07-13T14:01:51;98967.56;;;25.05;54.53
78317;BME280;67572;50.930;18.276;2023-07-13T14:04:58;98968.34;;;24.99;52.82
78317;BME280;67572;50.930;18.276;2023-07-13T14:08:02;98970.81;;;24.31;54.28
78317;BME280;67572;50.930;18.276;2023-07-13T14:11:07;98968.81;;;24.40;54.92
78317;BME280;67572;50.930;18.276;2023-07-13T14:14:16;98973.28;;;25.84;52.44
78317;BME280;67572;50.930;18.276;2023-07-13T14:17:24;98964.25;;;25.16;52.05
78317;BME280;67572;50.930;18.276;2023-07-13T14:20:29;98965.09;;;25.10;50.73
78317;BME280;67572;50.930;18.276;2023-07-13T14:23:33;98957.38;;;26.21;50.25
78317;BME280;67572;50.930;18.276;2023-07-13T14:26:40;98960.50;;;25.98;50.26
78317;BME280;67572;50.930;18.276;2023-07-13T14:29:44;98964.09;;;25.31;50.45
78317;BME280;67572;50.930;18.276;2023-07-13T14:32:51;98962.31;;;25.58;49.07
78317;BME280;67572;50.930;18.276;2023-07-13T14:36:00;98963.47;;;24.87;50.06
78317;BME280;67572;50.930;18.276;2023-07-13T14:39:11;98946.94;;;25.30;50.03
78317;BME280;67572;50.930;18.276;2023-07-13T14:42:16;98944.34;;;25.70;49.10
78317;BME280;67572;50.930;18.276;2023-07-13T14:45:20;98941.28;;;25.25;51.42
78317;BME280;67572;50.930;18.276;2023-07-13T14:48:26;98934.72;;;26.14;48.75
78317;BME280;67572;50.930;18.276;2023-07-13T14:51:31;98922.44;;;26.96;45.67
78317;BME280;67572;50.930;18.276;2023-07-13T14:54:34;98923.00;;;25.87;47.71
78317;BME280;67572;50.930;18.276;2023-07-13T14:57:42;98919.25;;;26.08;46.05
78317;BME280;67572;50.930;18.276;2023-07-13T15:00:46;98915.91;;;25.11;46.48
78317;BME280;67572;50.930;18.276;2023-07-13T15:03:52;98912.25;;;25.59;46.78
78317;BME280;67572;50.930;18.276;2023-07-13T15:06:59;98912.25;;;26.58;45.24
78317;BME280;67572;50.930;18.276;2023-07-13T15:10:12;98905.81;;;26.19;43.63
78317;BME280;67572;50.930;18.276;2023-07-13T15:13:18;98906.25;;;26.10;43.57
78317;BME280;67572;50.930;18.276;2023-07-13T15:16:24;98904.31;;;26.43;42.98
78317;BME280;67572;50.930;18.276;2023-07-13T15:19:30;98894.50;;;26.22;42.36
78317;BME280;67572;50.930;18.276;2023-07-13T15:22:34;98890.72;;;26.30;41.24
78317;BME280;67572;50.930;18.276;2023-07-13T15:25:38;98889.34;;;26.79;41.83
78317;BME280;67572;50.930;18.276;2023-07-13T15:28:42;98887.28;;;26.68;41.68
78317;BME280;67572;50.930;18.276;2023-07-13T15:31:46;98890.13;;;26.93;40.28
78317;BME280;67572;50.930;18.276;2023-07-13T15:34:53;98876.56;;;26.73;41.75
78317;BME280;67572;50.930;18.276;2023-07-13T15:37:57;98886.31;;;27.00;40.88
78317;BME280;67572;50.930;18.276;2023-07-13T15:41:04;98893.53;;;26.81;41.02
78317;BME280;67572;50.930;18.276;2023-07-13T15:44:23;98894.41;;;27.20;39.42
78317;BME280;67572;50.930;18.276;2023-07-13T15:47:28;98897.50;;;26.86;40.99
78317;BME280;67572;50.930;18.276;2023-07-13T15:50:42;98909.38;;;27.11;40.60
78317;BME280;67572;50.930;18.276;2023-07-13T15:53:47;98914.00;;;26.39;41.76
78317;BME280;67572;50.930;18.276;2023-07-13T15:56:53;98925.50;;;25.82;43.14
78317;BME280;67572;50.930;18.276;2023-07-13T15:59:58;98921.75;;;26.09;42.51
78317;BME280;67572;50.930;18.276;2023-07-13T16:03:02;98927.78;;;26.58;41.71
78317;BME280;67572;50.930;18.276;2023-07-13T16:06:13;98938.50;;;26.13;42.63
78317;BME280;67572;50.930;18.276;2023-07-13T16:09:20;98950.78;;;25.69;42.14
78317;BME280;67572;50.930;18.276;2023-07-13T16:12:26;98949.25;;;25.33;42.92
78317;BME280;67572;50.930;18.276;2023-07-13T16:15:29;98952.81;;;25.27;43.65
78317;BME280;67572;50.930;18.276;2023-07-13T16:18:33;98958.28;;;24.99;45.31